Time;durP1;ratioP1;P1;durP2;ratioP2;P2;SDS_P1;SDS_P2;PMS_P1;PMS_P2;Temp;Humidity;BMP_temperature;BMP_pressure;BME280_temperature;BME280_humidity;BME280_pressure;Samples;Min_cycle;Max_cycle;Signal;HPM_P1;HPM_P2
2022/08/27 00:02:08;;;;;;;;;5.50;5.50;;;;;23.08;37.31;101162.25;5123152;27;45219;-60
2022/08/27 00:04:34;;;;;;;;;6.25;5.00;;;;;23.02;37.19;101147.44;5123545;27;45172;-60
2022/08/27 00:07:01;;;;;;;;;4.50;3.50;;;;;23.03;37.17;101155.38;5123330;27;45294;-60
2022/08/27 00:09:27;;;;;;;;;4.25;4.25;;;;;23.01;37.21;101146.53;5123400;27;45492;-60
2022/08/27 00:11:54;;;;;;;;;3.00;3.00;;;;;22.99;37.47;101144.91;5104396;27;47197;-60
2022/08/27 00:14:21;;;;;;;;;6.00;4.50;;;;;22.97;37.33;101152.19;5123349;27;45351;-60
2022/08/27 00:16:46;;;;;;;;;5.00;4.50;;;;;22.95;37.61;101146.91;5123341;27;46119;-61
2022/08/27 00:19:11;;;;;;;;;4.00;3.25;;;;;22.93;37.63;101143.47;5123303;27;45207;-60
2022/08/27 00:21:37;;;;;;;;;3.00;3.00;;;;;22.91;37.66;101142.69;5122734;27;46029;-60
2022/08/27 00:24:03;;;;;;;;;1.25;1.25;;;;;22.89;37.39;101149.94;5123397;27;45346;-60
2022/08/27 00:26:28;;;;;;;;;3.00;3.00;;;;;22.87;37.73;101160.78;5122970;27;45305;-60
2022/08/27 00:28:54;;;;;;;;;4.50;4.00;;;;;22.85;37.65;101159.97;5104555;27;45263;-60
2022/08/27 00:31:19;;;;;;;;;3.50;3.50;;;;;22.85;37.82;101153.78;5122932;27;45291;-60
2022/08/27 00:33:44;;;;;;;;;5.50;4.50;;;;;22.84;37.66;101157.41;5123368;27;45251;-60
2022/08/27 00:36:11;;;;;;;;;3.25;3.25;;;;;22.83;37.75;101155.69;5123168;27;45450;-60
2022/08/27 00:38:37;;;;;;;;;4.00;4.00;;;;;22.82;37.73;101164.69;5122899;27;45382;-61
2022/08/27 00:41:05;;;;;;;;;4.75;3.25;;;;;22.80;37.88;101163.91;5122770;27;46507;-60
2022/08/27 00:43:44;;;;;;;;;5.50;4.00;;;;;22.78;37.89;101166.69;5122630;27;45161;-60
2022/08/27 00:46:18;;;;;;;;;6.00;4.00;;;;;22.75;38.14;101166.00;5122979;27;45193;-60
2022/08/27 00:48:44;;;;;;;;;5.00;3.00;;;;;22.76;38.19;101160.53;5122745;27;45152;-60
2022/08/27 00:51:10;;;;;;;;;3.75;3.75;;;;;22.76;38.09;101157.88;5122549;27;45275;-62
2022/08/27 00:53:35;;;;;;;;;6.00;6.00;;;;;22.75;38.52;101155.28;5104097;27;45799;-61
2022/08/27 00:56:07;;;;;;;;;4.25;3.00;;;;;22.75;38.28;101158.81;5122843;27;45442;-61
2022/08/27 00:58:40;;;;;;;;;4.00;4.00;;;;;22.75;38.30;101150.78;5104131;27;45265;-61
2022/08/27 01:01:08;;;;;;;;;5.50;3.00;;;;;22.76;38.13;101148.97;5122677;27;46599;-62
2022/08/27 01:03:34;;;;;;;;;3.00;3.00;;;;;22.76;38.30;101159.69;5122351;27;45222;-61
2022/08/27 01:06:01;;;;;;;;;4.50;4.00;;;;;22.75;38.39;101150.78;5122749;27;45298;-61
2022/08/27 01:08:30;;;;;;;;;3.00;3.00;;;;;22.76;38.36;101151.66;5122426;27;45535;-61
2022/08/27 01:10:59;;;;;;;;;4.25;2.75;;;;;22.76;38.53;101157.00;5122381;27;46354;-62
2022/08/27 01:13:28;;;;;;;;;3.75;3.75;;;;;22.73;38.35;101150.03;5121833;27;45429;-61
2022/08/27 01:15:57;;;;;;;;;3.50;3.50;;;;;22.76;38.17;101162.38;5122557;27;45453;-61
2022/08/27 01:18:24;;;;;;;;;4.00;4.00;;;;;22.76;38.95;101157.00;5122224;27;45161;-61
2022/08/27 01:21:12;;;;;;;;;4.50;4.00;;;;;22.76;38.67;101165.91;5103922;27;48160;-61
2022/08/27 01:23:49;;;;;;;;;4.00;3.25;;;;;22.76;38.67;101165.06;5122128;27;45509;-61
2022/08/27 01:26:16;;;;;;;;;3.50;2.75;;;;;22.75;38.98;101156.13;5122185;27;45317;-61
2022/08/27 01:28:42;;;;;;;;;4.00;4.00;;;;;22.76;39.04;101159.69;5121877;27;45590;-61
2022/08/27 01:31:10;;;;;;;;;3.00;3.00;;;;;22.76;38.76;101159.69;5122077;27;46124;-61
2022/08/27 01:33:36;;;;;;;;;2.75;2.75;;;;;22.76;38.65;101148.97;5121216;27;45460;-61
2022/08/27 01:36:03;;;;;;;;;4.00;2.00;;;;;22.77;39.05;101153.38;5122241;27;45471;-61
2022/08/27 01:38:30;;;;;;;;;4.50;4.50;;;;;22.77;39.26;101161.44;5121907;27;45289;-61
2022/08/27 01:40:56;;;;;;;;;4.00;4.00;;;;;22.76;38.75;101151.66;5121798;27;46684;-61
2022/08/27 01:43:21;;;;;;;;;4.25;4.00;;;;;22.77;39.10;101153.38;5121648;27;45433;-61
2022/08/27 01:45:50;;;;;;;;;3.25;2.50;;;;;22.76;39.24;101149.81;5122173;27;45188;-61
2022/08/27 01:48:18;;;;;;;;;2.25;2.25;;;;;22.76;38.69;101143.63;5122049;27;45156;-61
2022/08/27 01:50:44;;;;;;;;;3.75;2.00;;;;;22.73;39.19;101140.16;5121802;27;47086;-61
2022/08/27 01:53:13;;;;;;;;;2.00;2.00;;;;;22.73;39.37;101142.84;5121880;27;45365;-61
2022/08/27 01:55:40;;;;;;;;;4.00;3.00;;;;;22.73;39.20;101139.31;5121989;27;45321;-61
2022/08/27 01:58:05;;;;;;;;;2.00;2.00;;;;;22.71;39.07;101135.84;5121535;27;45483;-61
2022/08/27 02:00:37;;;;;;;;;3.00;3.00;;;;;22.72;39.38;101134.91;5121476;27;46256;-61
2022/08/27 02:03:04;;;;;;;;;3.00;3.00;;;;;22.70;39.28;101140.34;5121678;27;45231;-61
2022/08/27 02:05:29;;;;;;;;;2.25;2.00;;;;;22.66;39.40;101136.09;5103149;27;45451;-61
2022/08/27 02:07:55;;;;;;;;;4.00;3.00;;;;;22.67;39.10;101140.53;5121542;27;45463;-61
2022/08/27 02:10:30;;;;;;;;;2.00;2.00;;;;;22.67;39.47;101137.00;5121464;27;45405;-61
2022/08/27 02:12:55;;;;;;;;;3.50;3.50;;;;;22.63;39.33;101128.28;5121296;27;45512;-61
2022/08/27 02:15:22;;;;;;;;;4.50;3.50;;;;;22.63;39.30;101138.97;5121551;27;45317;-61
2022/08/27 02:17:48;;;;;;;;;2.50;2.50;;;;;22.59;39.52;101140.13;5103029;27;45485;-61
2022/08/27 02:20:14;;;;;;;;;2.75;2.00;;;;;22.60;39.57;101135.63;5121156;27;46183;-61
2022/08/27 02:22:40;;;;;;;;;4.00;4.00;;;;;22.56;39.73;101138.50;5120747;27;45345;-61
2022/08/27 02:25:07;;;;;;;;;3.00;3.00;;;;;22.56;39.58;101142.97;5121309;27;45309;-61
2022/08/27 02:27:33;;;;;;;;;3.00;2.00;;;;;22.54;39.71;101142.19;5120531;27;45334;-61
2022/08/27 02:29:58;;;;;;;;;3.50;3.50;;;;;22.52;39.55;101139.59;5102162;27;47769;-61
2022/08/27 02:32:23;;;;;;;;;2.75;2.75;;;;;22.51;39.35;101137.88;5121482;27;45417;-61
2022/08/27 02:34:49;;;;;;;;;4.25;3.50;;;;;22.48;39.65;101140.75;5121317;27;45263;-61
2022/08/27 02:37:15;;;;;;;;;4.50;3.00;;;;;22.47;40.03;101141.69;5121190;27;45456;-61
2022/08/27 02:39:41;;;;;;;;;3.25;2.75;;;;;22.46;39.85;101144.47;5121101;27;47421;-61
2022/08/27 02:42:06;;;;;;;;;1.50;1.50;;;;;22.44;39.84;101141.88;5121129;27;45771;-61
2022/08/27 02:44:34;;;;;;;;;4.50;2.50;;;;;22.41;39.88;101139.38;5123592;27;45296;-60
2022/08/27 02:47:00;;;;;;;;;3.00;3.00;;;;;22.39;39.96;101135.94;5124881;27;45279;-61
2022/08/27 02:49:25;;;;;;;;;4.00;3.00;;;;;22.36;39.94;101136.94;5124447;27;46406;-60
2022/08/27 02:51:55;;;;;;;;;3.75;3.00;;;;;22.34;39.78;101128.13;5124712;27;45237;-61
2022/08/27 02:54:22;;;;;;;;;2.00;2.00;;;;;22.32;40.06;101135.38;5123643;27;45612;-61
2022/08/27 02:56:47;;;;;;;;;2.75;2.75;;;;;;;;5123223;27;45345;-61
2022/08/27 02:59:13;;;;;;;;;3.75;3.00;;;;;22.28;40.09;101132.97;5124250;27;46233;-61
2022/08/27 03:01:39;;;;;;;;;4.25;3.00;;;;;22.25;39.86;101139.38;5124778;27;45472;-61
2022/08/27 03:04:04;;;;;;;;;4.00;2.00;;;;;22.22;40.01;101127.00;5124453;27;45706;-61
2022/08/27 03:06:30;;;;;;;;;3.25;2.00;;;;;22.24;39.96;101134.97;5124718;27;45453;-61
2022/08/27 03:08:56;;;;;;;;;5.50;4.00;;;;;22.21;40.00;101124.41;5124354;27;45391;-61
2022/08/27 03:11:22;;;;;;;;;4.00;4.00;;;;;22.20;40.11;101128.91;5124315;27;45356;-61
2022/08/27 03:13:47;;;;;;;;;3.75;3.75;;;;;22.19;40.66;101126.34;5124328;27;45196;-61
2022/08/27 03:16:13;;;;;;;;;3.00;3.00;;;;;22.15;40.57;101127.44;5124259;27;45406;-61
2022/08/27 03:18:38;;;;;;;;;4.00;3.50;;;;;22.13;40.53;101122.19;5124221;27;46041;-61
2022/08/27 03:21:04;;;;;;;;;4.00;3.75;;;;;22.11;40.21;101125.91;5124344;27;45160;-61
2022/08/27 03:23:34;;;;;;;;;3.50;2.00;;;;;22.08;40.47;101132.28;5124234;27;45254;-61
2022/08/27 03:26:02;;;;;;;;;2.25;2.25;;;;;22.05;40.85;101133.31;5124092;27;45523;-61
2022/08/27 03:28:31;;;;;;;;;4.50;4.00;;;;;22.03;40.30;101123.66;5123702;27;45255;-61
2022/08/27 03:31:00;;;;;;;;;3.50;3.50;;;;;22.00;40.42;101116.66;5105776;27;45409;-60
2022/08/27 03:33:28;;;;;;;;;4.50;2.25;;;;;21.98;40.58;101125.72;5124108;27;45168;-60
2022/08/27 03:35:53;;;;;;;;;1.25;1.25;;;;;21.95;40.41;101123.22;5123942;27;45495;-60
2022/08/27 03:38:19;;;;;;;;;3.50;2.00;;;;;21.87;40.71;101120.97;5123498;27;46783;-60
2022/08/27 03:40:45;;;;;;;;;3.50;3.00;;;;;21.89;40.33;101119.09;5105744;27;45260;-60
2022/08/27 03:43:11;;;;;;;;;4.50;2.25;;;;;21.87;40.87;101127.19;5123637;27;45380;-60
2022/08/27 03:45:37;;;;;;;;;3.00;3.00;;;;;21.85;40.37;101114.88;5123861;27;45389;-60
2022/08/27 03:48:04;;;;;;;;;5.50;3.00;;;;;21.81;40.48;101111.50;5123420;27;46186;-59
2022/08/27 03:50:31;;;;;;;;;2.00;2.00;;;;;21.78;40.88;101113.47;5123859;27;45424;-60
2022/08/27 03:52:57;;;;;;;;;2.00;2.00;;;;;21.75;41.13;101104.66;5123694;27;45149;-60
2022/08/27 03:55:23;;;;;;;;;4.25;3.50;;;;;21.75;40.73;101111.84;5122873;27;45175;-60
2022/08/27 03:57:48;;;;;;;;;2.75;2.75;;;;;21.69;40.80;101102.31;5123123;27;45289;-60
2022/08/27 04:00:14;;;;;;;;;4.00;2.25;;;;;21.70;40.69;101106.72;5123805;27;45234;-60
2022/08/27 04:02:41;;;;;;;;;4.00;3.00;;;;;21.66;40.81;101099.84;5123557;27;45219;-60
2022/08/27 04:05:13;;;;;;;;;3.75;3.75;;;;;21.62;40.81;101103.59;5123589;27;45345;-59
2022/08/27 04:07:39;;;;;;;;;3.00;2.25;;;;;21.61;40.98;101109.91;5123361;27;45915;-59
2022/08/27 04:10:08;;;;;;;;;2.00;2.00;;;;;21.58;41.24;101110.06;5123560;27;45230;-60
2022/08/27 04:12:34;;;;;;;;;3.25;3.25;;;;;21.56;41.18;101106.63;5123356;27;45435;-59
2022/08/27 04:14:59;;;;;;;;;3.00;3.00;;;;;21.55;41.09;101110.22;5104780;27;45470;-60
2022/08/27 04:17:25;;;;;;;;;3.00;3.00;;;;;21.50;41.13;101106.94;5123244;27;46038;-60
2022/08/27 04:19:51;;;;;;;;;2.00;2.00;;;;;21.49;40.98;101105.19;5123294;27;45228;-59
2022/08/27 04:22:17;;;;;;;;;5.75;4.00;;;;;21.42;41.08;101091.28;5123580;27;45220;-59
2022/08/27 04:24:42;;;;;;;;;2.25;2.25;;;;;21.42;41.38;101100.19;5123149;27;45417;-60
2022/08/27 04:27:08;;;;;;;;;4.50;3.25;;;;;21.40;41.52;101110.09;5121523;27;46924;-59
2022/08/27 04:29:33;;;;;;;;;4.00;4.00;;;;;21.37;41.61;101099.59;5122973;27;45248;-59
2022/08/27 04:31:59;;;;;;;;;5.00;3.00;;;;;21.35;41.60;101100.59;5123311;27;45301;-61
2022/08/27 04:34:25;;;;;;;;;3.25;3.25;;;;;21.32;41.21;101098.97;5123069;27;45558;-61
2022/08/27 04:36:53;;;;;;;;;3.00;3.00;;;;;21.30;41.20;101100.84;5122902;27;45329;-60
2022/08/27 04:39:19;;;;;;;;;3.50;3.50;;;;;21.29;41.10;101108.94;5122846;27;45310;-60
2022/08/27 04:41:48;;;;;;;;;3.00;3.00;;;;;21.26;41.29;101094.81;5122949;27;45390;-59
2022/08/27 04:44:13;;;;;;;;;5.00;4.00;;;;;21.24;41.77;101093.16;5122718;27;45500;-59
2022/08/27 04:46:39;;;;;;;;;5.00;5.00;;;;;21.22;41.50;101103.94;5122832;27;46208;-59
2022/08/27 04:49:09;;;;;;;;;3.00;2.75;;;;;21.20;41.67;101107.63;5122711;27;45173;-59
2022/08/27 04:51:34;;;;;;;;;5.00;4.50;;;;;21.18;41.82;101096.16;5123009;27;45355;-59
2022/08/27 04:54:02;;;;;;;;;3.75;3.25;;;;;21.15;41.65;101102.53;5122721;27;45369;-59
2022/08/27 04:56:28;;;;;;;;;2.25;1.50;;;;;21.15;41.66;101110.53;5122719;27;46036;-59
2022/08/27 04:58:53;;;;;;;;;3.25;3.25;;;;;21.12;41.59;101105.38;5122412;27;45601;-59
2022/08/27 05:01:22;;;;;;;;;5.00;5.00;;;;;21.09;42.12;101103.72;5104463;27;45277;-59
2022/08/27 05:03:48;;;;;;;;;4.00;4.00;;;;;21.02;41.73;101096.97;5103972;27;45370;-59
2022/08/27 05:06:13;;;;;;;;;4.00;3.00;;;;;21.05;41.73;101109.31;5122332;27;45315;-59
2022/08/27 05:08:40;;;;;;;;;4.00;3.50;;;;;21.03;41.90;101109.41;5121520;27;45297;-59
2022/08/27 05:11:07;;;;;;;;;4.50;3.50;;;;;21.03;41.82;101113.84;5122610;27;45350;-59
2022/08/27 05:13:34;;;;;;;;;6.00;3.50;;;;;21.00;42.21;101114.88;5122201;27;45164;-59
2022/08/27 05:16:05;;;;;;;;;4.50;4.00;;;;;21.00;42.27;101117.56;5122524;27;45474;-59
2022/08/27 05:18:30;;;;;;;;;6.75;4.75;;;;;20.99;42.24;101115.81;5122412;27;45400;-59
2022/08/27 05:20:57;;;;;;;;;3.00;3.00;;;;;20.99;41.91;101118.50;5104173;27;45298;-59
2022/08/27 05:23:23;;;;;;;;;5.25;4.25;;;;;20.99;42.09;101120.31;5121913;27;45558;-59
2022/08/27 05:25:50;;;;;;;;;3.00;3.00;;;;;20.98;41.98;101126.59;5122312;27;45248;-59
2022/08/27 05:28:20;;;;;;;;;5.00;5.00;;;;;20.96;42.48;101124.00;5121613;27;45468;-59
2022/08/27 05:30:48;;;;;;;;;5.00;5.00;;;;;20.96;42.07;101121.34;5103844;27;45402;-59
2022/08/27 05:33:17;;;;;;;;;4.50;4.25;;;;;20.95;42.56;101135.63;5122031;27;45483;-59
2022/08/27 05:35:54;;;;;;;;;6.00;4.50;;;;;20.94;42.41;101139.22;5121415;27;45386;-59
2022/08/27 05:38:20;;;;;;;;;6.00;4.75;;;;;20.94;42.11;101125.88;5103318;27;45445;-59
2022/08/27 05:40:47;;;;;;;;;7.00;5.00;;;;;20.92;42.74;101133.13;5122170;27;45438;-59
2022/08/27 05:43:14;;;;;;;;;5.00;5.00;;;;;20.91;42.52;101129.56;5121605;27;45496;-59
2022/08/27 05:45:45;;;;;;;;;6.50;4.00;;;;;20.89;42.41;101131.47;5121884;27;46577;-59
2022/08/27 05:48:15;;;;;;;;;5.25;5.25;;;;;20.84;42.22;101124.63;5121925;27;45285;-59
2022/08/27 05:50:43;;;;;;;;;6.50;5.00;;;;;20.86;42.46;101125.44;5121831;27;45420;-59
2022/08/27 05:53:10;;;;;;;;;5.25;4.00;;;;;20.86;41.97;101131.63;5121887;27;45407;-59
2022/08/27 05:55:38;;;;;;;;;7.00;4.75;;;;;20.86;42.85;101133.44;5121681;27;45412;-59
2022/08/27 05:58:03;;;;;;;;;8.75;6.00;;;;;20.86;42.34;101131.63;5121435;27;45274;-59
2022/08/27 06:03:13;;;;;;;;;6.00;4.00;;;;;20.84;42.33;101133.53;5121796;27;45361;-59
2022/08/27 06:05:38;;;;;;;;;7.50;5.00;;;;;20.85;42.52;101134.38;5121288;27;46970;-59
2022/08/27 06:08:03;;;;;;;;;5.00;3.25;;;;;20.85;42.51;101132.56;5121579;27;45235;-59
2022/08/27 06:10:29;;;;;;;;;7.00;6.00;;;;;20.85;42.44;101135.22;5121589;27;45251;-59
2022/08/27 06:12:54;;;;;;;;;5.25;4.25;;;;;20.88;42.96;101128.88;5121429;27;45452;-59
2022/08/27 06:15:19;;;;;;;;;4.00;4.00;;;;;20.84;42.32;101122.84;5121454;27;46041;-59
2022/08/27 06:17:45;;;;;;;;;4.50;4.00;;;;;20.85;42.86;101127.22;5121373;27;45176;-59
2022/08/27 06:20:10;;;;;;;;;5.00;4.50;;;;;20.90;42.95;101130.50;5121310;27;45199;-59
2022/08/27 06:22:36;;;;;;;;;6.75;6.75;;;;;20.92;42.70;101135.81;5121561;27;45346;-59
2022/08/27 06:25:02;;;;;;;;;5.25;5.00;;;;;20.92;42.43;101139.31;5121160;27;45432;-59
2022/08/27 06:27:27;;;;;;;;;5.00;5.00;;;;;20.93;42.73;101140.22;5120911;27;45491;-59
2022/08/27 06:29:52;;;;;;;;;4.75;4.50;;;;;20.96;42.82;101152.53;5121313;27;45401;-59
2022/08/27 06:32:18;;;;;;;;;6.00;5.50;;;;;20.96;43.09;101145.38;5121389;27;45312;-59
2022/08/27 06:34:43;;;;;;;;;4.00;4.00;;;;;20.96;42.42;101141.84;5102625;27;46155;-59
2022/08/27 06:37:09;;;;;;;;;7.75;7.50;;;;;20.93;42.70;101135.72;5121030;27;45385;-59
2022/08/27 06:39:38;;;;;;;;;5.25;5.00;;;;;20.96;42.80;101131.16;5121265;27;45324;-59
2022/08/27 06:42:05;;;;;;;;;6.00;6.00;;;;;20.98;42.47;101138.16;5120878;27;45208;-59
2022/08/27 06:44:30;;;;;;;;;8.25;6.00;;;;;21.00;43.16;101132.72;5120729;27;46144;-59
2022/08/27 06:46:55;;;;;;;;;6.00;6.00;;;;;21.01;42.62;101142.47;5121362;27;45469;-59
2022/08/27 06:49:22;;;;;;;;;6.25;5.25;;;;;21.01;43.06;101137.97;5121016;27;45350;-59
2022/08/27 06:51:47;;;;;;;;;6.00;5.00;;;;;21.02;42.91;101145.06;5121004;27;45309;-59
2022/08/27 06:54:13;;;;;;;;;7.00;7.00;;;;;21.02;42.64;101147.72;5120737;27;45313;-59
2022/08/27 06:56:41;;;;;;;;;5.00;5.00;;;;;21.03;42.67;101149.47;5120744;27;45335;-59
2022/08/27 06:59:09;;;;;;;;;4.00;3.50;;;;;21.03;42.87;101154.81;5120704;27;45426;-59
2022/08/27 07:01:37;;;;;;;;;5.00;5.00;;;;;21.04;43.00;101158.34;5120956;27;45233;-59
2022/08/27 07:04:06;;;;;;;;;7.50;4.25;;;;;21.05;42.71;101160.06;5120555;27;45452;-59
2022/08/27 07:06:32;;;;;;;;;7.25;6.75;;;;;21.06;43.37;101159.13;5121049;27;45187;-59
2022/08/27 07:08:58;;;;;;;;;5.50;4.50;;;;;21.08;43.34;101165.22;5120683;27;45326;-59
2022/08/27 07:11:25;;;;;;;;;7.00;6.00;;;;;21.09;43.43;101170.53;5102139;27;45446;-59
2022/08/27 07:13:51;;;;;;;;;6.00;6.00;;;;;21.09;43.35;101165.19;5120403;27;46346;-59
2022/08/27 07:16:19;;;;;;;;;9.00;6.00;;;;;21.08;42.83;101157.22;5120780;27;45318;-59
2022/08/27 07:18:45;;;;;;;;;7.25;5.50;;;;;21.10;43.06;101161.53;5120721;27;45468;-59
2022/08/27 07:21:11;;;;;;;;;6.75;6.00;;;;;21.14;42.86;101164.06;5120721;27;45327;-59
2022/08/27 07:23:38;;;;;;;;;7.00;6.00;;;;;21.16;43.47;101163.03;5120434;27;46240;-59
2022/08/27 07:26:11;;;;;;;;;5.75;5.00;;;;;21.19;43.44;101175.38;5119884;27;45205;-59
2022/08/27 07:28:38;;;;;;;;;7.00;6.00;;;;;21.22;43.39;101161.84;5120436;27;45364;-59
2022/08/27 07:31:05;;;;;;;;;7.75;5.00;;;;;21.24;43.58;101154.63;5122175;27;45479;-59
2022/08/27 07:33:30;;;;;;;;;7.25;6.25;;;;;21.27;43.01;101154.47;5123817;27;46265;-59
2022/08/27 07:35:56;;;;;;;;;5.50;5.00;;;;;21.30;43.56;101167.66;5124124;27;45470;-59
2022/08/27 07:38:21;;;;;;;;;7.00;6.75;;;;;21.33;43.63;101163.97;5123872;27;45271;-59
2022/08/27 07:40:46;;;;;;;;;5.75;5.50;;;;;21.37;43.00;101168.19;5123833;27;45301;-59
2022/08/27 07:46:00;;;;;;;;;7.00;6.25;;;;;21.41;43.31;101170.63;5124093;27;45555;-59
2022/08/27 07:48:26;;;;;;;;;6.00;6.00;;;;;21.46;43.07;101178.41;5123890;27;45364;-59
2022/08/27 07:50:52;;;;;;;;;4.75;4.25;;;;;21.47;43.29;101179.28;5123663;27;45246;-58
2022/08/27 07:53:19;;;;;;;;;7.75;6.50;;;;;21.53;43.70;101170.91;5123687;27;46303;-59
2022/08/27 07:55:44;;;;;;;;;7.75;5.75;;;;;21.55;42.96;101177.06;5123763;27;45165;-59
2022/08/27 07:58:10;;;;;;;;;7.75;7.25;;;;;21.61;43.68;101178.56;5123681;27;45215;-59
2022/08/27 08:00:36;;;;;;;;;8.50;7.75;;;;;21.61;43.51;101184.78;5123791;27;45501;-59
2022/08/27 08:03:02;;;;;;;;;7.75;6.00;;;;;21.66;43.39;101179.16;5123393;27;46989;-59
2022/08/27 08:05:28;;;;;;;;;9.50;9.00;;;;;21.70;43.58;101178.09;5123583;27;45280;-59
2022/08/27 08:07:54;;;;;;;;;7.00;6.00;;;;;21.76;43.21;101175.06;5123564;27;45396;-59
2022/08/27 08:10:22;;;;;;;;;6.75;6.00;;;;;21.79;43.14;101176.72;5123410;27;45459;-59
2022/08/27 08:12:48;;;;;;;;;8.25;7.00;;;;;21.84;43.53;101174.66;5123127;27;46144;-59
2022/08/27 08:15:14;;;;;;;;;5.00;5.00;;;;;21.89;43.40;101181.47;5104830;27;45270;-59
2022/08/27 08:17:39;;;;;;;;;5.00;4.00;;;;;21.94;43.42;101186.56;5123585;27;45231;-59
2022/08/27 08:20:07;;;;;;;;;9.75;9.75;;;;;21.96;43.34;101186.47;5123205;27;45166;-59
2022/08/27 08:22:33;;;;;;;;;10.00;7.25;;;;;22.04;43.30;101186.94;5123189;27;45324;-59
2022/08/27 08:24:58;;;;;;;;;7.75;7.25;;;;;22.09;43.19;101190.22;5123138;27;45292;-59
2022/08/27 08:27:24;;;;;;;;;4.50;4.25;;;;;22.11;43.72;101193.66;5122888;27;45327;-59
2022/08/27 08:29:50;;;;;;;;;8.25;6.25;;;;;22.21;43.20;101194.88;5121851;27;45267;-59
2022/08/27 08:32:16;;;;;;;;;11.00;8.50;;;;;22.28;43.60;101187.38;5123228;27;46059;-59
2022/08/27 08:34:42;;;;;;;;;10.25;7.25;;;;;22.35;43.32;101183.41;5122928;27;45235;-59
2022/08/27 08:37:08;;;;;;;;;5.75;5.25;;;;;22.39;43.44;101184.97;5122854;27;45239;-59
2022/08/27 08:39:35;;;;;;;;;6.00;5.50;;;;;22.50;43.58;101188.84;5122922;27;45184;-59
2022/08/27 08:42:04;;;;;;;;;4.50;4.50;;;;;22.56;43.34;101185.81;5122818;27;46683;-59
2022/08/27 08:44:45;;;;;;;;;9.00;7.00;;;;;22.64;43.19;101196.97;5122668;27;45322;-59
2022/08/27 08:47:13;;;;;;;;;7.00;6.00;;;;;22.71;43.13;101189.41;5122899;27;45249;-59
2022/08/27 08:49:47;;;;;;;;;4.00;3.75;;;;;22.78;43.50;101190.78;5122630;27;45555;-60
2022/08/27 08:52:23;;;;;;;;;8.75;6.75;;;;;22.83;43.00;101180.66;5122584;27;45356;-59
2022/08/27 08:54:50;;;;;;;;;5.75;5.75;;;;;22.94;43.05;101177.34;5122839;27;45421;-59
2022/08/27 08:57:24;;;;;;;;;4.00;4.00;;;;;23.03;43.15;101181.28;5122247;27;45305;-59
2022/08/27 09:00:04;;;;;;;;;5.00;5.00;;;;;23.12;42.85;101180.75;5122557;27;45487;-58
2022/08/27 09:02:29;;;;;;;;;6.00;5.00;;;;;23.19;42.85;101182.16;5122347;27;46046;-59
2022/08/27 09:04:57;;;;;;;;;4.50;4.50;;;;;23.28;42.63;101180.72;5122723;27;45162;-58
2022/08/27 09:07:32;;;;;;;;;4.75;3.75;;;;;23.35;42.62;101171.31;5122511;27;45414;-58
2022/08/27 09:10:16;;;;;;;;;7.00;5.75;;;;;23.46;42.61;101189.44;5122364;27;45281;-59
2022/08/27 09:12:41;;;;;;;;;3.50;3.25;;;;;23.56;42.35;101194.22;5121995;27;46160;-59
2022/08/27 09:15:18;;;;;;;;;3.25;3.00;;;;;23.64;42.31;101183.91;5122195;27;45320;-59
2022/08/27 09:17:46;;;;;;;;;4.00;3.50;;;;;23.72;42.13;101181.59;5122651;27;45317;-59
2022/08/27 09:20:16;;;;;;;;;6.50;5.75;;;;;23.80;42.05;101184.66;5122201;27;45544;-59
2022/08/27 09:23:10;;;;;;;;;4.50;4.50;;;;;23.94;42.04;101182.97;5122128;27;47127;-59
2022/08/27 09:25:38;;;;;;;;;5.75;5.00;;;;;24.04;41.68;101184.09;5122226;27;45168;-59
2022/08/27 09:29:14;;;;;;;;;4.50;4.00;;;;;24.14;41.84;101181.69;5120470;27;45443;-60
2022/08/27 09:31:14;;;;;;;;;5.50;4.25;;;;;24.23;41.66;101181.06;5121979;27;45442;-59
2022/08/27 09:33:39;;;;;;;;;4.75;4.75;;;;;24.36;41.09;101185.66;5122028;27;46911;-59
2022/08/27 09:36:10;;;;;;;;;3.75;3.75;;;;;24.46;41.16;101178.72;5121938;27;45261;-60
2022/08/27 09:38:40;;;;;;;;;5.00;3.00;;;;;24.56;40.86;101184.34;5103470;27;45275;-59
2022/08/27 09:41:15;;;;;;;;;5.00;4.00;;;;;24.67;40.95;101184.50;5121644;27;45458;-59
2022/08/27 09:43:42;;;;;;;;;5.75;5.00;;;;;24.80;41.18;101188.13;5121823;27;45328;-59
2022/08/27 09:46:21;;;;;;;;;4.00;3.00;;;;;24.90;40.57;101185.63;5121699;27;45425;-59
2022/08/27 09:48:47;;;;;;;;;4.25;4.25;;;;;25.03;40.25;101192.88;5122002;27;45318;-60
2022/08/27 09:51:17;;;;;;;;;5.00;4.00;;;;;25.13;40.19;101192.16;5120418;27;45256;-60
2022/08/27 09:53:49;;;;;;;;;4.50;3.50;;;;;25.23;40.06;101188.81;5121269;27;45667;-59
2022/08/27 09:56:48;;;;;;;;;7.25;5.50;;;;;25.30;39.87;101182.91;5103900;27;45329;-58
2022/08/27 09:59:27;;;;;;;;;5.00;5.00;;;;;25.52;39.69;101194.03;5121427;27;45325;-59
2022/08/27 10:02:11;;;;;;;;;3.00;3.00;;;;;25.66;39.52;101187.66;5103234;27;45374;-59
2022/08/27 10:04:43;;;;;;;;;4.75;3.00;;;;;25.77;39.04;101185.94;5121531;27;46159;-59
2022/08/27 10:07:18;;;;;;;;;6.25;3.00;;;;;25.90;39.53;101194.00;5120557;27;45287;-59
2022/08/27 10:09:52;;;;;;;;;5.75;3.75;;;;;26.03;38.72;101183.19;5121683;27;45307;-59
2022/08/27 10:12:22;;;;;;;;;4.50;4.50;;;;;26.16;38.43;101193.94;5120994;27;45459;-59
2022/08/27 10:14:53;;;;;;;;;3.50;2.00;;;;;26.29;38.84;101199.31;5119957;27;48784;-59
2022/08/27 10:17:24;;;;;;;;;4.25;4.25;;;;;26.42;38.21;101193.88;5121568;27;45460;-59
2022/08/27 10:19:53;;;;;;;;;4.25;4.00;;;;;26.56;38.54;101195.53;5121538;27;45232;-59
2022/08/27 10:22:24;;;;;;;;;5.00;4.00;;;;;26.68;38.00;101202.69;5120168;27;45499;-58
2022/08/27 10:25:14;;;;;;;;;5.75;5.00;;;;;26.83;37.64;101192.63;5121277;27;46167;-58
2022/08/27 10:28:01;;;;;;;;;7.25;6.00;;;;;26.98;37.68;101200.50;5120729;27;45280;-59
2022/08/27 10:30:52;;;;;;;;;7.00;5.00;;;;;27.12;37.57;101185.94;5121471;27;45169;-59
2022/08/27 10:33:23;;;;;;;;;4.00;4.00;;;;;27.27;37.77;101189.28;5121017;27;45488;-59
2022/08/27 10:36:04;;;;;;;;;5.25;4.25;;;;;27.41;37.06;101173.78;5121164;27;46355;-59
2022/08/27 10:39:00;;;;;;;;;5.75;3.50;;;;;27.62;37.61;101178.44;5120920;27;45395;-59
2022/08/27 10:41:40;;;;;;;;;3.00;3.00;;;;;27.83;37.31;101178.56;5119293;27;45254;-59
2022/08/27 10:44:21;;;;;;;;;6.00;4.50;;;;;28.08;37.29;101179.31;5104242;27;45236;-59
2022/08/27 10:46:46;;;;;;;;;4.00;4.00;;;;;28.35;37.42;101181.59;5121093;27;45200;-59
2022/08/27 10:49:37;;;;;;;;;5.25;5.25;;;;;28.66;37.21;101168.19;5120832;27;45177;-59
2022/08/27 10:52:17;;;;;;;;;5.25;5.25;;;;;29.06;36.98;101166.69;5120763;27;45327;-59
2022/08/27 10:54:46;;;;;;;;;5.75;5.00;;;;;29.45;37.29;101172.34;5121024;27;45520;-60
2022/08/27 10:57:40;;;;;;;;;5.25;5.25;;;;;29.92;37.16;101163.72;5120287;27;46427;-60
2022/08/27 11:00:16;;;;;;;;;6.25;5.25;;;;;30.43;37.08;101169.94;5120439;27;45306;-60
2022/08/27 11:02:53;;;;;;;;;6.75;5.00;;;;;30.95;37.48;101166.94;5102348;27;45452;-59
2022/08/27 11:05:24;;;;;;;;;2.75;2.75;;;;;31.45;37.25;101160.41;5122780;27;45409;-59
2022/08/27 11:08:08;;;;;;;;;4.50;4.00;;;;;31.98;36.92;101158.06;5124398;27;45258;-60
2022/08/27 11:10:52;;;;;;;;;5.00;4.75;;;;;32.57;36.45;101161.22;5124311;27;45464;-60
2022/08/27 11:13:28;;;;;;;;;7.75;7.00;;;;;33.12;35.95;101158.44;5122946;27;45256;-60
2022/08/27 11:15:55;;;;;;;;;5.25;3.50;;;;;33.54;35.89;101157.69;5124449;27;45231;-60
2022/08/27 11:18:50;;;;;;;;;4.00;3.50;;;;;34.03;35.38;101159.78;5124132;27;45467;-60
2022/08/27 11:21:25;;;;;;;;;3.50;3.50;;;;;34.44;34.92;101159.03;5124139;27;45251;-60
2022/08/27 11:24:01;;;;;;;;;4.25;4.00;;;;;34.82;34.45;101153.94;5124501;27;45239;-60
2022/08/27 11:26:32;;;;;;;;;5.00;5.00;;;;;35.19;34.37;101158.00;5123860;27;45300;-60
2022/08/27 11:29:00;;;;;;;;;3.50;2.00;;;;;35.56;33.58;101155.69;5123948;27;45537;-60
2022/08/27 11:31:52;;;;;;;;;3.75;3.50;;;;;35.88;33.41;101146.53;5123901;27;45241;-60
2022/08/27 11:34:32;;;;;;;;;3.75;3.75;;;;;36.17;32.59;101144.97;5124262;27;45172;-60
2022/08/27 11:37:44;;;;;;;;;2.25;2.25;;;;;36.36;32.50;101127.25;5123920;27;45526;-59
2022/08/27 11:40:17;;;;;;;;;2.25;2.25;;;;;36.69;31.78;101146.16;5122777;27;47112;-60
2022/08/27 11:42:47;;;;;;;;;3.00;2.25;;;;;36.90;31.70;101141.88;5123445;27;45285;-60